createdAt,value
2023-02-18T00:00:59.806Z,30.23
2023-02-18T00:03:27.550Z,25.17
2023-02-18T00:05:54.835Z,23.67
2023-02-18T00:08:23.167Z,28.33
2023-02-18T00:10:50.394Z,31.30
2023-02-18T00:13:17.952Z,24.80
2023-02-18T00:15:45.340Z,24.80
2023-02-18T00:18:14.363Z,27.50
2023-02-18T00:20:41.736Z,29.03
2023-02-18T00:23:09.090Z,22.93
2023-02-18T00:25:36.412Z,27.87
2023-02-18T00:28:04.030Z,26.47
2023-02-18T00:30:31.576Z,24.07
2023-02-18T00:32:59.156Z,30.27
2023-02-18T00:35:28.509Z,31.53
2023-02-18T00:37:55.825Z,30.47
2023-02-18T00:40:23.475Z,29.93
2023-02-18T00:42:50.795Z,31.97
2023-02-18T00:45:18.303Z,27.87
2023-02-18T00:47:45.614Z,30.70
2023-02-18T00:50:12.874Z,26.27
2023-02-18T00:52:41.500Z,34.37
2023-02-18T00:55:08.964Z,24.53
2023-02-18T00:57:36.400Z,35.10
2023-02-18T01:00:04.712Z,33.87
2023-02-18T01:02:32.042Z,32.30
2023-02-18T01:04:59.430Z,30.70
2023-02-18T01:07:26.767Z,30.70
2023-02-18T01:09:55.732Z,27.63
2023-02-18T01:12:23.129Z,29.53
2023-02-18T01:14:50.447Z,29.27
2023-02-18T01:17:17.748Z,26.90
2023-02-18T01:19:45.095Z,23.87
2023-02-18T01:22:12.722Z,21.37
2023-02-18T01:24:41.898Z,34.20
2023-02-18T01:27:10.595Z,27.00
2023-02-18T01:29:56.355Z,25.77
2023-02-18T01:32:47.365Z,25.77
2023-02-18T01:35:20.807Z,28.60
2023-02-18T01:37:48.333Z,25.57
2023-02-18T01:40:17.351Z,27.30
2023-02-18T01:42:46.208Z,24.90
2023-02-18T01:45:40.509Z,30.73
2023-02-18T01:48:10.159Z,33.83
2023-02-18T01:50:45.771Z,26.10
2023-02-18T01:53:15.928Z,25.43
2023-02-18T01:55:43.512Z,27.40
2023-02-18T01:58:12.337Z,33.03
2023-02-18T02:00:58.017Z,31.43
2023-02-18T02:03:45.221Z,21.17
2023-02-18T02:06:15.981Z,26.83
2023-02-18T02:08:43.271Z,28.07
2023-02-18T02:11:16.070Z,26.37
2023-02-18T02:13:49.685Z,29.33
2023-02-18T02:16:21.986Z,28.13
2023-02-18T02:18:54.594Z,28.73
2023-02-18T02:21:52.469Z,34.13
2023-02-18T02:24:38.590Z,27.10
2023-02-18T02:27:29.987Z,28.67
2023-02-18T02:36:48.629Z,33.97
2023-02-18T02:39:20.860Z,27.00
2023-02-18T02:41:53.454Z,27.80
2023-02-18T02:44:22.274Z,27.93
2023-02-18T02:46:51.949Z,22.90
2023-02-18T02:49:23.459Z,29.73
2023-02-18T02:51:55.316Z,21.20
2023-02-18T02:54:25.314Z,23.53
2023-02-18T02:57:05.794Z,19.63
2023-02-18T03:03:34.992Z,21.13
2023-02-18T03:06:11.841Z,20.73
2023-02-18T03:08:42.205Z,19.17
2023-02-18T03:11:10.591Z,24.57
2023-02-18T03:13:45.400Z,21.73
2023-02-18T03:16:22.649Z,16.97
2023-02-18T03:19:00.022Z,29.13
2023-02-18T03:21:29.380Z,21.40
2023-02-18T03:24:02.430Z,15.50
2023-02-18T03:26:31.136Z,15.77
2023-02-18T03:29:06.423Z,14.80
2023-02-18T03:34:48.577Z,13.00
2023-02-18T03:37:16.621Z,14.77
2023-02-18T03:39:46.744Z,8.90
2023-02-18T03:42:14.677Z,11.07
2023-02-18T03:44:41.998Z,15.03
2023-02-18T03:47:09.399Z,14.07
2023-02-18T03:49:36.703Z,14.37
2023-02-18T03:52:04.266Z,16.63
2023-02-18T03:54:31.901Z,16.53
2023-02-18T03:57:00.582Z,17.70
2023-02-18T03:59:48.232Z,15.93
2023-02-18T04:02:20.108Z,17.83
2023-02-18T04:04:47.384Z,18.17
2023-02-18T04:07:14.935Z,16.00
2023-02-18T04:09:42.522Z,21.20
2023-02-18T04:12:11.172Z,19.20
2023-02-18T04:14:38.702Z,18.83
2023-02-18T04:20:00.062Z,14.20
2023-02-18T04:22:27.410Z,2.93
2023-02-18T04:24:54.625Z,22.30
2023-02-18T04:27:23.270Z,22.13
2023-02-18T04:29:50.834Z,18.70
2023-02-18T04:32:18.433Z,20.50
2023-02-18T04:38:30.109Z,16.83
2023-02-18T04:40:57.361Z,20.10
2023-02-18T04:43:26.072Z,20.23
2023-02-18T04:45:53.437Z,21.53
2023-02-18T04:48:20.693Z,23.30
2023-02-18T04:50:48.796Z,10.67
2023-02-18T04:53:16.042Z,14.27
2023-02-18T04:55:43.654Z,16.67
2023-02-18T04:58:10.887Z,10.03
2023-02-18T05:00:39.652Z,14.00
2023-02-18T05:03:06.993Z,16.10
2023-02-18T05:05:34.583Z,15.37
2023-02-18T05:08:21.052Z,13.57
2023-02-18T05:11:11.303Z,9.80
2023-02-18T05:13:56.958Z,11.23
2023-02-18T05:16:25.695Z,12.90
2023-02-18T05:18:52.979Z,9.90
2023-02-18T05:21:20.312Z,14.07
2023-02-18T05:23:47.684Z,10.47
2023-02-18T05:26:14.943Z,9.67
2023-02-18T05:28:42.286Z,10.30
2023-02-18T05:31:09.677Z,12.33
2023-02-18T05:33:38.379Z,12.07
2023-02-18T05:36:06.008Z,16.17
2023-02-18T05:38:55.330Z,16.00
2023-02-18T05:41:41.399Z,12.87
2023-02-18T05:44:08.677Z,15.30
2023-02-18T05:46:36.022Z,17.90
2023-02-18T05:49:04.770Z,9.63
2023-02-18T05:51:32.043Z,21.20
2023-02-18T05:53:59.286Z,17.20
2023-02-18T05:56:44.981Z,18.10
2023-02-18T05:59:12.311Z,26.47
2023-02-18T06:01:39.507Z,21.60
2023-02-18T06:04:08.128Z,11.47
2023-02-18T06:13:55.064Z,28.43
2023-02-18T06:16:22.709Z,40.70
2023-02-18T06:18:50.365Z,38.97
2023-02-18T06:21:19.175Z,25.63
2023-02-18T06:23:46.417Z,17.27
2023-02-18T06:28:56.160Z,16.47
2023-02-18T06:31:23.672Z,27.03
2023-02-18T06:33:51.371Z,19.30
2023-02-18T06:43:19.597Z,17.83
2023-02-18T06:45:46.889Z,25.37
2023-02-18T06:48:14.545Z,19.90
2023-02-18T06:50:43.083Z,12.47
2023-02-18T06:53:10.417Z,25.90
2023-02-18T06:55:37.672Z,25.27
2023-02-18T06:58:05.275Z,23.50
2023-02-18T07:00:34.107Z,19.33
2023-02-18T07:03:01.365Z,23.33
2023-02-18T07:05:28.668Z,25.93
2023-02-18T07:14:41.056Z,23.10
2023-02-18T07:17:09.707Z,19.00
2023-02-18T07:19:37.048Z,26.73
2023-02-18T07:22:04.310Z,22.23
2023-02-18T07:24:31.632Z,28.77
2023-02-18T07:26:58.942Z,19.37
2023-02-18T07:29:26.506Z,23.10
2023-02-18T07:31:53.858Z,21.77
2023-02-18T07:34:22.583Z,22.53
2023-02-18T07:40:15.408Z,25.50
2023-02-18T07:42:43.051Z,10.30
2023-02-18T07:45:11.099Z,21.40
2023-02-18T07:47:38.660Z,13.47
2023-02-18T07:50:08.249Z,17.23
2023-02-18T07:52:35.670Z,11.60
2023-02-18T07:57:45.105Z,20.07
2023-02-18T08:00:13.231Z,25.57
2023-02-18T08:02:40.775Z,22.23
2023-02-18T08:05:11.637Z,20.73
2023-02-18T08:07:40.831Z,18.27
2023-02-18T08:10:08.246Z,24.33
2023-02-18T08:15:56.178Z,37.00
2023-02-18T08:18:24.209Z,19.83
2023-02-18T08:20:53.174Z,17.20
2023-02-18T08:23:21.186Z,24.27
2023-02-18T08:26:08.624Z,22.80
2023-02-18T08:28:42.772Z,19.97
2023-02-18T08:31:17.050Z,13.47
2023-02-18T08:33:44.515Z,20.70
2023-02-18T08:36:13.208Z,21.90
2023-02-18T08:38:40.537Z,19.30
2023-02-18T08:41:09.332Z,22.63
2023-02-18T08:43:36.857Z,34.87
2023-02-18T08:46:04.388Z,25.77
2023-02-18T08:48:31.700Z,20.83
2023-02-18T08:50:59.051Z,22.00
2023-02-18T08:53:28.070Z,15.57
2023-02-18T08:55:55.391Z,29.10
2023-02-18T08:58:22.716Z,18.53
2023-02-18T09:00:50.013Z,12.90
2023-02-18T09:03:17.406Z,23.07
2023-02-18T09:05:44.809Z,19.07
2023-02-18T09:08:12.430Z,27.70
2023-02-18T09:10:41.115Z,13.73
2023-02-18T09:13:09.120Z,19.07
2023-02-18T09:15:36.449Z,12.57
2023-02-18T09:18:03.723Z,15.97
2023-02-18T09:20:31.050Z,21.63
2023-02-18T09:22:58.283Z,19.43
2023-02-18T09:25:26.294Z,16.33
2023-02-18T09:27:54.909Z,22.40
2023-02-18T09:30:22.401Z,15.13
2023-02-18T09:32:49.681Z,25.07
2023-02-18T09:35:17.042Z,15.17
2023-02-18T09:37:44.470Z,26.23
2023-02-18T09:43:02.762Z,23.77
2023-02-18T09:45:30.982Z,13.87
2023-02-18T09:47:58.971Z,22.77
2023-02-18T09:50:27.258Z,17.13
2023-02-18T09:52:54.907Z,21.47
2023-02-18T09:55:23.821Z,20.50
2023-02-18T09:58:17.098Z,19.70
2023-02-18T10:01:04.451Z,20.77
2023-02-18T10:03:32.025Z,20.53
2023-02-18T10:06:01.466Z,14.40
2023-02-18T10:08:29.689Z,21.70
2023-02-18T10:10:56.940Z,16.07
2023-02-18T10:13:26.911Z,18.50
2023-02-18T10:18:44.174Z,13.80
2023-02-18T10:21:13.418Z,12.50
2023-02-18T10:23:42.193Z,18.47
2023-02-18T10:26:13.451Z,15.50
2023-02-18T10:28:42.674Z,17.80
2023-02-18T10:37:59.915Z,18.30
2023-02-18T10:40:31.780Z,19.57
2023-02-18T10:43:04.267Z,20.27
2023-02-18T10:45:37.858Z,20.60
2023-02-18T10:48:15.942Z,14.03
2023-02-18T10:51:01.873Z,10.60
2023-02-18T10:53:32.518Z,17.57
2023-02-18T10:55:59.859Z,14.27
2023-02-18T10:58:28.840Z,16.63
2023-02-18T11:07:13.893Z,12.33
2023-02-18T11:09:42.070Z,10.33
2023-02-18T11:12:14.880Z,11.73
2023-02-18T11:14:43.302Z,12.83
2023-02-18T11:17:15.518Z,17.57
2023-02-18T11:22:39.893Z,19.10
2023-02-18T11:25:21.801Z,11.70
2023-02-18T11:27:50.795Z,11.83
2023-02-18T11:30:20.712Z,18.33
2023-02-18T11:32:50.012Z,13.23
2023-02-18T11:39:12.342Z,12.97
2023-02-18T11:41:43.045Z,15.20
2023-02-18T11:44:18.880Z,17.03
2023-02-18T11:46:57.145Z,13.20
2023-02-18T11:49:25.125Z,13.03
2023-02-18T11:51:53.012Z,17.37
2023-02-18T11:54:38.712Z,15.17
2023-02-18T11:57:11.424Z,6.77
2023-02-18T11:59:39.917Z,22.73
2023-02-18T12:02:15.562Z,16.00
2023-02-18T12:12:01.821Z,9.17
2023-02-18T12:14:30.643Z,14.83
2023-02-18T12:17:07.573Z,10.87
2023-02-18T12:19:45.253Z,21.20
2023-02-18T12:22:15.063Z,6.63
2023-02-18T12:24:51.580Z,12.83
2023-02-18T12:27:21.738Z,8.57
2023-02-18T12:30:03.952Z,7.77
2023-02-18T12:32:36.737Z,14.93
2023-02-18T12:35:34.875Z,16.87
2023-02-18T12:41:18.371Z,19.20
2023-02-18T12:43:49.984Z,11.23
2023-02-18T12:46:28.208Z,12.00
2023-02-18T12:49:04.003Z,15.90
2023-02-18T12:51:38.597Z,13.67
2023-02-18T12:57:10.451Z,12.40
2023-02-18T12:59:48.599Z,10.17
2023-02-18T13:02:25.924Z,23.13
2023-02-18T13:04:56.332Z,19.40
2023-02-18T13:07:41.186Z,14.23
2023-02-18T13:13:59.605Z,8.43
2023-02-18T13:16:27.706Z,14.43
2023-02-18T13:19:00.227Z,13.53
2023-02-18T13:21:27.821Z,10.17
2023-02-18T13:23:57.475Z,12.47
2023-02-18T13:26:25.364Z,10.20
2023-02-18T13:28:57.739Z,7.10
2023-02-18T13:31:34.017Z,7.20
2023-02-18T13:34:05.601Z,15.97
2023-02-18T13:36:37.162Z,7.77
2023-02-18T13:39:06.470Z,8.47
2023-02-18T13:41:36.503Z,10.63
2023-02-18T13:46:56.275Z,5.60
2023-02-18T13:49:25.842Z,9.97
2023-02-18T13:51:54.747Z,12.60
2023-02-18T13:54:25.216Z,10.47
2023-02-18T13:56:53.646Z,10.00
2023-02-18T13:59:43.318Z,6.20
2023-02-18T14:02:35.666Z,14.17
2023-02-18T14:05:24.109Z,9.63
2023-02-18T14:08:04.235Z,16.80
2023-02-18T14:10:35.779Z,9.40
2023-02-18T14:13:18.704Z,8.77
2023-02-18T14:15:51.501Z,9.80
2023-02-18T14:18:29.201Z,12.47
2023-02-18T14:21:04.977Z,14.20
2023-02-18T14:23:56.008Z,16.47
2023-02-18T14:26:25.023Z,15.13
2023-02-18T14:28:55.035Z,20.30
2023-02-18T14:31:33.969Z,12.97
2023-02-18T14:34:16.383Z,16.60
2023-02-18T14:36:48.101Z,16.13
2023-02-18T14:39:27.096Z,14.50
2023-02-18T14:41:58.009Z,12.37
2023-02-18T14:44:34.619Z,15.07
2023-02-18T14:47:11.755Z,21.57
2023-02-18T14:49:41.745Z,9.83
2023-02-18T14:52:13.426Z,13.03
2023-02-18T14:54:42.569Z,13.77
2023-02-18T14:57:13.711Z,12.40
2023-02-18T14:59:45.400Z,19.27
2023-02-18T15:02:21.544Z,16.47
2023-02-18T15:04:49.231Z,14.90
2023-02-18T15:07:18.957Z,20.73
2023-02-18T15:09:47.743Z,21.23
2023-02-18T15:12:17.054Z,22.10
2023-02-18T15:14:44.597Z,13.83
2023-02-18T15:17:14.957Z,14.03
2023-02-18T15:22:15.823Z,22.70
2023-02-18T15:24:44.161Z,24.23
2023-02-18T15:27:14.955Z,22.23
2023-02-18T15:29:42.500Z,15.37
2023-02-18T15:32:16.949Z,25.80
2023-02-18T15:41:32.468Z,24.93
2023-02-18T15:44:02.708Z,19.23
2023-02-18T15:46:30.366Z,23.20
2023-02-18T15:48:58.031Z,26.77
2023-02-18T15:51:26.837Z,26.10
2023-02-18T15:53:55.383Z,20.90
2023-02-18T15:56:27.015Z,24.13
2023-02-18T15:58:57.705Z,22.00
2023-02-18T16:01:28.535Z,20.87
2023-02-18T16:03:56.416Z,29.20
2023-02-18T16:06:24.944Z,25.80
2023-02-18T16:09:23.059Z,26.03
2023-02-18T16:15:00.787Z,19.87
2023-02-18T16:17:30.135Z,19.17
2023-02-18T16:20:04.874Z,22.60
2023-02-18T16:22:34.745Z,24.60
2023-02-18T16:25:03.015Z,25.13
2023-02-18T16:27:32.845Z,25.93
2023-02-18T16:30:01.072Z,21.03
2023-02-18T16:32:29.722Z,25.63
2023-02-18T16:34:57.034Z,24.03
2023-02-18T16:37:24.390Z,20.30
2023-02-18T16:39:52.800Z,23.80
2023-02-18T16:45:02.712Z,26.13
2023-02-18T16:47:31.616Z,25.30
2023-02-18T16:49:59.049Z,35.37
2023-02-18T16:52:26.372Z,32.23
2023-02-18T16:54:53.982Z,25.57
2023-02-18T16:57:28.679Z,21.87
2023-02-18T17:00:23.888Z,24.20
2023-02-18T17:03:11.518Z,29.87
2023-02-18T17:05:40.251Z,32.07
2023-02-18T17:08:15.343Z,21.90
2023-02-18T17:10:42.758Z,27.07
2023-02-18T17:13:11.090Z,27.87
2023-02-18T17:15:38.462Z,29.67
2023-02-18T17:18:05.846Z,23.10
2023-02-18T17:20:33.456Z,27.13
2023-02-18T17:23:02.120Z,23.80
2023-02-18T17:25:30.988Z,29.40
2023-02-18T17:27:58.331Z,27.70
2023-02-18T17:30:26.013Z,28.47
2023-02-18T17:32:53.362Z,27.33
2023-02-18T17:35:21.591Z,37.93
2023-02-18T17:37:48.995Z,25.30
2023-02-18T17:40:18.730Z,31.87
2023-02-18T17:42:46.008Z,36.07
2023-02-18T17:45:17.630Z,40.60
2023-02-18T17:47:44.928Z,27.93
2023-02-18T17:50:12.207Z,29.37
2023-02-18T17:52:39.552Z,29.97
2023-02-18T17:55:29.367Z,23.30
2023-02-18T17:57:56.884Z,30.20
2023-02-18T18:00:25.079Z,15.10
2023-02-18T18:02:52.651Z,29.50
2023-02-18T18:05:21.403Z,30.63
2023-02-18T18:07:48.681Z,26.10
2023-02-18T18:10:16.092Z,25.23
2023-02-18T18:12:45.053Z,28.13
2023-02-18T18:15:26.249Z,39.40
2023-02-18T18:17:53.875Z,30.60
2023-02-18T18:20:21.361Z,28.83
2023-02-18T18:22:48.716Z,29.73
2023-02-18T18:25:20.702Z,28.27
2023-02-18T18:31:42.329Z,19.23
2023-02-18T18:34:11.006Z,30.27
2023-02-18T18:36:38.313Z,39.43
2023-02-18T18:39:05.875Z,26.07
2023-02-18T18:41:33.155Z,25.17
2023-02-18T18:44:00.375Z,29.37
2023-02-18T18:46:27.755Z,36.70
2023-02-18T18:48:54.951Z,17.10
2023-02-18T18:51:29.344Z,30.13
2023-02-18T18:53:56.603Z,23.17
2023-02-18T18:56:23.907Z,30.53
2023-02-18T18:58:51.307Z,30.50
2023-02-18T19:01:20.235Z,29.37
2023-02-18T19:03:47.687Z,19.80
2023-02-18T19:06:15.703Z,22.90
2023-02-18T19:08:44.484Z,35.53
2023-02-18T19:11:12.174Z,22.87
2023-02-18T19:13:39.506Z,26.03
2023-02-18T19:18:42.659Z,33.10
2023-02-18T19:21:10.115Z,26.57
2023-02-18T19:23:37.706Z,19.83
2023-02-18T19:26:06.623Z,36.17
2023-02-18T19:28:37.128Z,28.03
2023-02-18T19:31:08.636Z,24.67
2023-02-18T19:37:41.731Z,21.23
2023-02-18T19:40:11.931Z,20.30
2023-02-18T19:42:40.641Z,20.00
2023-02-18T19:45:08.259Z,31.47
2023-02-18T19:47:41.318Z,23.93
2023-02-18T19:50:09.571Z,15.23
2023-02-18T19:52:36.944Z,23.40
2023-02-18T19:55:04.208Z,22.17
2023-02-18T19:57:31.410Z,15.83
2023-02-18T20:00:00.132Z,19.37
2023-02-18T20:02:27.629Z,15.80
2023-02-18T20:04:55.002Z,20.10
2023-02-18T20:07:22.880Z,27.73
2023-02-18T20:09:52.165Z,32.70
2023-02-18T20:12:19.668Z,28.73
2023-02-18T20:14:47.147Z,20.73
2023-02-18T20:17:15.748Z,24.53
2023-02-18T20:19:43.048Z,15.60
2023-02-18T20:22:10.454Z,25.27
2023-02-18T20:24:38.090Z,32.77
2023-02-18T20:27:05.296Z,29.20
2023-02-18T20:29:32.618Z,29.20
2023-02-18T20:32:00.023Z,29.33
2023-02-18T20:34:29.113Z,29.70
2023-02-18T20:36:56.510Z,28.67
2023-02-18T20:39:24.519Z,43.07
2023-02-18T20:41:52.188Z,37.23
2023-02-18T20:44:20.154Z,32.67
2023-02-18T20:46:49.289Z,31.23
2023-02-18T20:49:17.723Z,37.03
2023-02-18T20:51:46.668Z,31.37
2023-02-18T20:54:14.909Z,34.87
2023-02-18T20:56:42.472Z,30.93
2023-02-18T20:59:12.031Z,39.67
2023-02-18T21:01:41.103Z,31.10
2023-02-18T21:04:08.497Z,39.77
2023-02-18T21:06:35.732Z,29.10
2023-02-18T21:09:04.496Z,23.50
2023-02-18T21:11:31.817Z,40.60
2023-02-18T21:13:59.395Z,29.90
2023-02-18T21:16:27.494Z,29.83
2023-02-18T21:18:54.795Z,41.60
2023-02-18T21:21:22.377Z,32.53
2023-02-18T21:23:49.776Z,31.77
2023-02-18T21:26:19.882Z,28.23
2023-02-18T21:28:47.827Z,23.70
2023-02-18T21:31:15.950Z,33.97
2023-02-18T21:33:46.045Z,34.67
2023-02-18T21:36:14.319Z,38.17
2023-02-18T21:38:41.731Z,39.53
2023-02-18T21:41:09.417Z,26.87
2023-02-18T21:43:38.280Z,28.17
2023-02-18T21:46:06.240Z,38.13
2023-02-18T21:48:33.517Z,27.30
2023-02-18T21:51:00.993Z,40.47
2023-02-18T21:53:28.258Z,32.30
2023-02-18T21:56:03.549Z,23.80
2023-02-18T21:58:31.251Z,26.07
2023-02-18T22:00:59.864Z,30.87
2023-02-18T22:03:27.128Z,21.83
2023-02-18T22:05:54.377Z,24.10
2023-02-18T22:08:21.621Z,28.50
2023-02-18T22:10:48.861Z,24.70
2023-02-18T22:13:22.081Z,20.07
2023-02-18T22:15:54.819Z,21.60
2023-02-18T22:18:23.436Z,24.07
2023-02-18T22:20:50.661Z,23.23
2023-02-18T22:23:17.914Z,18.67
2023-02-18T22:25:45.139Z,28.03
2023-02-18T22:28:12.382Z,22.53
2023-02-18T22:30:39.859Z,23.50
2023-02-18T22:33:07.043Z,20.27
2023-02-18T22:35:35.647Z,20.03
2023-02-18T22:38:02.844Z,18.93
2023-02-18T22:40:30.124Z,18.33
2023-02-18T22:42:57.425Z,13.20
2023-02-18T22:45:24.700Z,11.77
2023-02-18T22:47:51.978Z,21.77
2023-02-18T22:50:19.362Z,10.47
2023-02-18T22:52:48.055Z,13.90
2023-02-18T22:55:15.433Z,17.67
2023-02-18T22:57:42.756Z,17.47
2023-02-18T23:00:10.561Z,14.13
2023-02-18T23:09:25.052Z,13.87
2023-02-18T23:11:53.014Z,13.37
2023-02-18T23:14:20.387Z,15.87
2023-02-18T23:16:48.872Z,14.77
2023-02-18T23:19:16.140Z,13.50
2023-02-18T23:21:43.426Z,21.73
2023-02-18T23:24:10.642Z,16.20
2023-02-18T23:26:39.290Z,13.40
2023-02-18T23:29:06.634Z,13.00
2023-02-18T23:31:34.154Z,14.50
2023-02-18T23:34:02.081Z,11.40
2023-02-18T23:36:30.620Z,10.17
2023-02-18T23:38:58.516Z,8.10
2023-02-18T23:41:26.443Z,11.73
2023-02-18T23:43:55.489Z,17.93
2023-02-18T23:46:23.652Z,17.67
2023-02-18T23:48:50.953Z,12.07
2023-02-18T23:51:19.462Z,10.63
2023-02-18T23:53:46.891Z,14.47
2023-02-18T23:56:15.854Z,16.77
2023-02-18T23:58:44.255Z,10.87
